sensor_id;sensor_type;location;lat;lon;timestamp;temperature;humidity
38118;DHT22;23928;47.562;7.508;2023-05-16T00:01:04;11.80;99.90
38118;DHT22;23928;47.562;7.508;2023-05-16T00:03:30;11.80;99.90
38118;DHT22;23928;47.562;7.508;2023-05-16T00:05:55;11.70;99.90
38118;DHT22;23928;47.562;7.508;2023-05-16T00:08:22;11.80;99.90
38118;DHT22;23928;47.562;7.508;2023-05-16T00:10:47;11.70;99.90
38118;DHT22;23928;47.562;7.508;2023-05-16T00:13:13;11.70;99.90
38118;DHT22;23928;47.562;7.508;2023-05-16T00:15:39;11.80;99.90
38118;DHT22;23928;47.562;7.508;2023-05-16T00:18:05;11.70;99.90
38118;DHT22;23928;47.562;7.508;2023-05-16T00:20:30;11.80;99.90
38118;DHT22;23928;47.562;7.508;2023-05-16T00:22:56;11.70;99.90
38118;DHT22;23928;47.562;7.508;2023-05-16T00:25:25;11.70;99.90
38118;DHT22;23928;47.562;7.508;2023-05-16T00:27:51;11.70;99.90
38118;DHT22;23928;47.562;7.508;2023-05-16T00:30:16;11.70;99.90
38118;DHT22;23928;47.562;7.508;2023-05-16T00:32:42;11.70;99.90
38118;DHT22;23928;47.562;7.508;2023-05-16T00:35:08;11.70;99.90
38118;DHT22;23928;47.562;7.508;2023-05-16T00:37:36;11.60;99.90
38118;DHT22;23928;47.562;7.508;2023-05-16T00:40:02;11.50;99.90
38118;DHT22;23928;47.562;7.508;2023-05-16T00:42:28;11.50;99.90
38118;DHT22;23928;47.562;7.508;2023-05-16T00:44:53;11.60;99.90
38118;DHT22;23928;47.562;7.508;2023-05-16T00:47:19;11.60;99.90
38118;DHT22;23928;47.562;7.508;2023-05-16T00:49:44;11.60;99.90
38118;DHT22;23928;47.562;7.508;2023-05-16T00:52:10;11.50;99.90
38118;DHT22;23928;47.562;7.508;2023-05-16T00:54:36;11.60;99.90
38118;DHT22;23928;47.562;7.508;2023-05-16T00:57:02;11.60;99.90
38118;DHT22;23928;47.562;7.508;2023-05-16T00:59:29;11.60;99.90
38118;DHT22;23928;47.562;7.508;2023-05-16T01:01:55;11.70;99.90
38118;DHT22;23928;47.562;7.508;2023-05-16T01:04:21;11.70;99.90
38118;DHT22;23928;47.562;7.508;2023-05-16T01:06:47;11.50;99.90
38118;DHT22;23928;47.562;7.508;2023-05-16T01:09:13;11.60;99.90
38118;DHT22;23928;47.562;7.508;2023-05-16T01:14:28;11.60;99.90
38118;DHT22;23928;47.562;7.508;2023-05-16T01:19:42;11.50;99.90
38118;DHT22;23928;47.562;7.508;2023-05-16T01:22:11;11.40;99.90
38118;DHT22;23928;47.562;7.508;2023-05-16T01:25:05;11.50;99.90
38118;DHT22;23928;47.562;7.508;2023-05-16T01:27:37;11.60;99.90
38118;DHT22;23928;47.562;7.508;2023-05-16T01:30:17;11.80;99.90
38118;DHT22;23928;47.562;7.508;2023-05-16T01:32:43;11.70;99.90
38118;DHT22;23928;47.562;7.508;2023-05-16T01:35:11;11.70;99.90
38118;DHT22;23928;47.562;7.508;2023-05-16T01:43:03;11.60;99.90
38118;DHT22;23928;47.562;7.508;2023-05-16T01:45:31;11.60;99.90
38118;DHT22;23928;47.562;7.508;2023-05-16T01:48:09;11.70;99.90
38118;DHT22;23928;47.562;7.508;2023-05-16T01:50:42;11.80;99.90
38118;DHT22;23928;47.562;7.508;2023-05-16T01:53:14;11.70;99.90
38118;DHT22;23928;47.562;7.508;2023-05-16T01:55:50;11.70;99.90
38118;DHT22;23928;47.562;7.508;2023-05-16T01:58:19;11.70;99.90
38118;DHT22;23928;47.562;7.508;2023-05-16T02:00:45;11.70;99.90
38118;DHT22;23928;47.562;7.508;2023-05-16T02:03:11;11.70;99.90
38118;DHT22;23928;47.562;7.508;2023-05-16T02:05:36;11.70;99.90
38118;DHT22;23928;47.562;7.508;2023-05-16T02:08:03;11.70;99.90
38118;DHT22;23928;47.562;7.508;2023-05-16T02:10:28;11.70;99.90
38118;DHT22;23928;47.562;7.508;2023-05-16T02:12:54;11.70;99.90
38118;DHT22;23928;47.562;7.508;2023-05-16T02:15:20;11.60;99.90
38118;DHT22;23928;47.562;7.508;2023-05-16T02:17:46;11.60;99.90
38118;DHT22;23928;47.562;7.508;2023-05-16T02:20:12;11.50;99.90
38118;DHT22;23928;47.562;7.508;2023-05-16T02:22:37;11.50;99.90
38118;DHT22;23928;47.562;7.508;2023-05-16T02:25:12;11.50;99.90
38118;DHT22;23928;47.562;7.508;2023-05-16T02:27:38;11.50;99.90
38118;DHT22;23928;47.562;7.508;2023-05-16T02:30:04;11.50;99.90
38118;DHT22;23928;47.562;7.508;2023-05-16T02:32:31;11.30;99.90
38118;DHT22;23928;47.562;7.508;2023-05-16T02:34:57;11.50;99.90
38118;DHT22;23928;47.562;7.508;2023-05-16T02:37:22;11.50;99.90
38118;DHT22;23928;47.562;7.508;2023-05-16T02:39:48;11.50;99.90
38118;DHT22;23928;47.562;7.508;2023-05-16T02:42:13;11.60;99.90
38118;DHT22;23928;47.562;7.508;2023-05-16T02:44:39;11.60;99.90
38118;DHT22;23928;47.562;7.508;2023-05-16T02:47:05;11.60;99.90
38118;DHT22;23928;47.562;7.508;2023-05-16T02:49:31;11.70;99.90
38118;DHT22;23928;47.562;7.508;2023-05-16T02:51:56;11.60;99.90
38118;DHT22;23928;47.562;7.508;2023-05-16T02:54:22;11.60;99.90
38118;DHT22;23928;47.562;7.508;2023-05-16T02:56:48;11.60;99.90
38118;DHT22;23928;47.562;7.508;2023-05-16T02:59:14;11.60;99.90
38118;DHT22;23928;47.562;7.508;2023-05-16T03:01:39;11.60;99.90
38118;DHT22;23928;47.562;7.508;2023-05-16T03:04:05;11.80;99.90
38118;DHT22;23928;47.562;7.508;2023-05-16T03:06:31;11.70;99.90
38118;DHT22;23928;47.562;7.508;2023-05-16T03:08:56;11.60;99.90
38118;DHT22;23928;47.562;7.508;2023-05-16T03:11:22;11.50;99.90
38118;DHT22;23928;47.562;7.508;2023-05-16T03:13:50;11.50;99.90
38118;DHT22;23928;47.562;7.508;2023-05-16T03:16:15;11.50;99.90
38118;DHT22;23928;47.562;7.508;2023-05-16T03:18:42;11.60;99.90
38118;DHT22;23928;47.562;7.508;2023-05-16T03:21:07;11.70;99.90
38118;DHT22;23928;47.562;7.508;2023-05-16T03:23:33;11.60;99.90
38118;DHT22;23928;47.562;7.508;2023-05-16T03:25:59;11.60;99.90
38118;DHT22;23928;47.562;7.508;2023-05-16T03:28:25;11.50;99.90
38118;DHT22;23928;47.562;7.508;2023-05-16T03:30:51;11.50;99.90
38118;DHT22;23928;47.562;7.508;2023-05-16T03:33:16;11.60;99.90
38118;DHT22;23928;47.562;7.508;2023-05-16T03:35:43;11.60;99.90
38118;DHT22;23928;47.562;7.508;2023-05-16T03:38:09;11.60;99.90
38118;DHT22;23928;47.562;7.508;2023-05-16T03:40:35;11.60;99.90
38118;DHT22;23928;47.562;7.508;2023-05-16T03:43:00;11.40;99.90
38118;DHT22;23928;47.562;7.508;2023-05-16T03:45:26;11.40;99.90
38118;DHT22;23928;47.562;7.508;2023-05-16T03:47:52;11.50;99.90
38118;DHT22;23928;47.562;7.508;2023-05-16T03:50:17;11.40;99.90
38118;DHT22;23928;47.562;7.508;2023-05-16T03:52:43;11.40;99.90
38118;DHT22;23928;47.562;7.508;2023-05-16T03:55:09;11.50;99.90
38118;DHT22;23928;47.562;7.508;2023-05-16T03:57:36;11.50;99.90
38118;DHT22;23928;47.562;7.508;2023-05-16T04:00:07;11.30;99.90
38118;DHT22;23928;47.562;7.508;2023-05-16T04:02:33;11.40;99.90
38118;DHT22;23928;47.562;7.508;2023-05-16T04:04:58;11.50;99.90
38118;DHT22;23928;47.562;7.508;2023-05-16T04:07:24;11.30;99.90
38118;DHT22;23928;47.562;7.508;2023-05-16T04:09:50;11.40;99.90
38118;DHT22;23928;47.562;7.508;2023-05-16T04:12:16;11.30;99.90
38118;DHT22;23928;47.562;7.508;2023-05-16T04:14:42;11.40;99.90
38118;DHT22;23928;47.562;7.508;2023-05-16T04:17:08;11.30;99.90
38118;DHT22;23928;47.562;7.508;2023-05-16T04:19:33;11.30;99.90
38118;DHT22;23928;47.562;7.508;2023-05-16T04:21:59;11.40;99.90
38118;DHT22;23928;47.562;7.508;2023-05-16T04:24:25;11.40;99.90
38118;DHT22;23928;47.562;7.508;2023-05-16T04:26:53;11.40;99.90
38118;DHT22;23928;47.562;7.508;2023-05-16T04:29:19;11.40;99.90
38118;DHT22;23928;47.562;7.508;2023-05-16T04:31:45;11.30;99.90
38118;DHT22;23928;47.562;7.508;2023-05-16T04:34:12;11.30;99.90
38118;DHT22;23928;47.562;7.508;2023-05-16T04:36:37;11.30;99.90
38118;DHT22;23928;47.562;7.508;2023-05-16T04:39:03;11.20;99.90
38118;DHT22;23928;47.562;7.508;2023-05-16T04:41:29;11.30;99.90
38118;DHT22;23928;47.562;7.508;2023-05-16T04:43:54;11.40;99.90
38118;DHT22;23928;47.562;7.508;2023-05-16T04:46:20;11.30;99.90
38118;DHT22;23928;47.562;7.508;2023-05-16T04:48:46;11.20;99.90
38118;DHT22;23928;47.562;7.508;2023-05-16T04:51:11;11.20;99.90
38118;DHT22;23928;47.562;7.508;2023-05-16T04:53:37;11.40;99.90
38118;DHT22;23928;47.562;7.508;2023-05-16T04:56:03;11.40;99.90
38118;DHT22;23928;47.562;7.508;2023-05-16T04:58:30;11.40;99.90
38118;DHT22;23928;47.562;7.508;2023-05-16T05:00:56;11.40;99.90
38118;DHT22;23928;47.562;7.508;2023-05-16T05:03:22;11.40;99.90
38118;DHT22;23928;47.562;7.508;2023-05-16T05:05:48;11.40;99.90
38118;DHT22;23928;47.562;7.508;2023-05-16T05:08:14;11.30;99.90
38118;DHT22;23928;47.562;7.508;2023-05-16T05:10:39;11.20;99.90
38118;DHT22;23928;47.562;7.508;2023-05-16T05:13:05;11.10;99.90
38118;DHT22;23928;47.562;7.508;2023-05-16T05:15:31;11.20;99.90
38118;DHT22;23928;47.562;7.508;2023-05-16T05:17:57;11.20;99.90
38118;DHT22;23928;47.562;7.508;2023-05-16T05:20:22;11.20;99.90
38118;DHT22;23928;47.562;7.508;2023-05-16T05:22:48;11.30;99.90
38118;DHT22;23928;47.562;7.508;2023-05-16T05:25:13;11.10;99.90
38118;DHT22;23928;47.562;7.508;2023-05-16T05:27:39;11.10;99.90
38118;DHT22;23928;47.562;7.508;2023-05-16T05:30:05;11.10;99.90
38118;DHT22;23928;47.562;7.508;2023-05-16T05:32:31;11.10;99.90
38118;DHT22;23928;47.562;7.508;2023-05-16T05:34:56;11.10;99.90
38118;DHT22;23928;47.562;7.508;2023-05-16T05:37:22;10.90;99.90
38118;DHT22;23928;47.562;7.508;2023-05-16T05:39:48;11.00;99.90
38118;DHT22;23928;47.562;7.508;2023-05-16T05:42:13;11.10;99.90
38118;DHT22;23928;47.562;7.508;2023-05-16T05:44:39;11.10;99.90
38118;DHT22;23928;47.562;7.508;2023-05-16T05:47:05;11.20;99.90
38118;DHT22;23928;47.562;7.508;2023-05-16T05:49:32;11.10;99.90
38118;DHT22;23928;47.562;7.508;2023-05-16T05:51:58;11.10;99.90
38118;DHT22;23928;47.562;7.508;2023-05-16T05:54:23;11.10;99.90
38118;DHT22;23928;47.562;7.508;2023-05-16T05:56:49;11.00;99.90
38118;DHT22;23928;47.562;7.508;2023-05-16T05:59:15;11.00;99.90
38118;DHT22;23928;47.562;7.508;2023-05-16T06:01:41;11.00;99.90
38118;DHT22;23928;47.562;7.508;2023-05-16T06:04:08;11.00;99.90
38118;DHT22;23928;47.562;7.508;2023-05-16T06:06:33;11.10;99.90
38118;DHT22;23928;47.562;7.508;2023-05-16T06:08:59;11.10;99.90
38118;DHT22;23928;47.562;7.508;2023-05-16T06:11:25;11.10;99.90
38118;DHT22;23928;47.562;7.508;2023-05-16T06:13:51;11.10;99.90
38118;DHT22;23928;47.562;7.508;2023-05-16T06:16:17;11.00;99.90
38118;DHT22;23928;47.562;7.508;2023-05-16T06:18:43;11.00;99.90
38118;DHT22;23928;47.562;7.508;2023-05-16T06:21:08;11.00;99.90
38118;DHT22;23928;47.562;7.508;2023-05-16T06:23:34;11.00;99.90
38118;DHT22;23928;47.562;7.508;2023-05-16T06:26:03;10.80;99.90
38118;DHT22;23928;47.562;7.508;2023-05-16T06:28:28;11.00;99.90
38118;DHT22;23928;47.562;7.508;2023-05-16T06:30:54;11.00;99.90
38118;DHT22;23928;47.562;7.508;2023-05-16T06:33:20;11.10;99.90
38118;DHT22;23928;47.562;7.508;2023-05-16T06:35:46;11.00;99.90
38118;DHT22;23928;47.562;7.508;2023-05-16T06:38:13;11.00;99.90
38118;DHT22;23928;47.562;7.508;2023-05-16T06:40:39;10.80;99.90
38118;DHT22;23928;47.562;7.508;2023-05-16T06:43:04;10.90;99.90
38118;DHT22;23928;47.562;7.508;2023-05-16T06:45:30;11.00;99.90
38118;DHT22;23928;47.562;7.508;2023-05-16T06:47:56;10.90;99.90
38118;DHT22;23928;47.562;7.508;2023-05-16T06:50:21;11.00;99.90
38118;DHT22;23928;47.562;7.508;2023-05-16T06:52:47;10.90;99.90
38118;DHT22;23928;47.562;7.508;2023-05-16T06:55:13;11.00;99.90
38118;DHT22;23928;47.562;7.508;2023-05-16T06:57:38;11.00;99.90
38118;DHT22;23928;47.562;7.508;2023-05-16T07:00:04;11.00;99.90
38118;DHT22;23928;47.562;7.508;2023-05-16T07:02:30;10.90;99.90
38118;DHT22;23928;47.562;7.508;2023-05-16T07:04:56;10.90;99.90
38118;DHT22;23928;47.562;7.508;2023-05-16T07:07:21;11.00;99.90
38118;DHT22;23928;47.562;7.508;2023-05-16T07:09:47;11.10;99.90
38118;DHT22;23928;47.562;7.508;2023-05-16T07:12:12;10.90;99.90
38118;DHT22;23928;47.562;7.508;2023-05-16T07:14:38;11.00;99.90
38118;DHT22;23928;47.562;7.508;2023-05-16T07:17:05;10.90;99.90
38118;DHT22;23928;47.562;7.508;2023-05-16T07:19:30;10.90;99.90
38118;DHT22;23928;47.562;7.508;2023-05-16T07:21:56;11.00;99.90
38118;DHT22;23928;47.562;7.508;2023-05-16T07:24:22;10.80;99.90
38118;DHT22;23928;47.562;7.508;2023-05-16T07:26:48;10.90;99.90
38118;DHT22;23928;47.562;7.508;2023-05-16T07:29:14;11.10;99.90
38118;DHT22;23928;47.562;7.508;2023-05-16T07:31:40;10.90;99.90
38118;DHT22;23928;47.562;7.508;2023-05-16T07:34:05;10.90;99.90
38118;DHT22;23928;47.562;7.508;2023-05-16T07:36:32;11.00;99.90
38118;DHT22;23928;47.562;7.508;2023-05-16T07:38:58;11.00;99.90
38118;DHT22;23928;47.562;7.508;2023-05-16T07:41:23;11.00;99.90
38118;DHT22;23928;47.562;7.508;2023-05-16T07:43:49;10.80;99.90
38118;DHT22;23928;47.562;7.508;2023-05-16T07:46:15;11.00;99.90
38118;DHT22;23928;47.562;7.508;2023-05-16T07:48:41;11.00;99.90
38118;DHT22;23928;47.562;7.508;2023-05-16T07:51:06;10.90;99.90
38118;DHT22;23928;47.562;7.508;2023-05-16T07:53:32;11.00;99.90
38118;DHT22;23928;47.562;7.508;2023-05-16T07:55:57;10.80;99.90
38118;DHT22;23928;47.562;7.508;2023-05-16T07:58:23;10.80;99.90
38118;DHT22;23928;47.562;7.508;2023-05-16T08:00:49;10.90;99.90
38118;DHT22;23928;47.562;7.508;2023-05-16T08:03:15;10.90;99.90
38118;DHT22;23928;47.562;7.508;2023-05-16T08:05:40;10.80;99.90
38118;DHT22;23928;47.562;7.508;2023-05-16T08:08:06;10.90;99.90
38118;DHT22;23928;47.562;7.508;2023-05-16T08:10:32;11.00;99.90
38118;DHT22;23928;47.562;7.508;2023-05-16T08:12:58;10.80;99.90
38118;DHT22;23928;47.562;7.508;2023-05-16T08:15:25;10.90;99.90
38118;DHT22;23928;47.562;7.508;2023-05-16T08:17:51;10.80;99.90
38118;DHT22;23928;47.562;7.508;2023-05-16T08:20:16;10.90;99.90
38118;DHT22;23928;47.562;7.508;2023-05-16T08:22:42;10.90;99.90
38118;DHT22;23928;47.562;7.508;2023-05-16T08:25:08;10.70;99.90
38118;DHT22;23928;47.562;7.508;2023-05-16T08:27:33;10.80;99.90
38118;DHT22;23928;47.562;7.508;2023-05-16T08:29:59;10.90;99.90
38118;DHT22;23928;47.562;7.508;2023-05-16T08:32:24;10.80;99.90
38118;DHT22;23928;47.562;7.508;2023-05-16T08:34:50;10.80;99.90
38118;DHT22;23928;47.562;7.508;2023-05-16T08:37:16;10.90;99.90
38118;DHT22;23928;47.562;7.508;2023-05-16T08:39:41;10.90;99.90
38118;DHT22;23928;47.562;7.508;2023-05-16T08:42:07;10.80;99.90
38118;DHT22;23928;47.562;7.508;2023-05-16T08:44:33;10.70;99.90
38118;DHT22;23928;47.562;7.508;2023-05-16T08:47:04;10.80;99.90
38118;DHT22;23928;47.562;7.508;2023-05-16T08:49:33;10.70;99.90
38118;DHT22;23928;47.562;7.508;2023-05-16T08:52:01;10.80;99.90
38118;DHT22;23928;47.562;7.508;2023-05-16T08:54:28;10.80;99.90
38118;DHT22;23928;47.562;7.508;2023-05-16T08:56:55;10.80;99.90
38118;DHT22;23928;47.562;7.508;2023-05-16T08:59:21;10.90;99.90
38118;DHT22;23928;47.562;7.508;2023-05-16T09:01:47;10.80;99.90
38118;DHT22;23928;47.562;7.508;2023-05-16T09:04:14;10.60;99.90
38118;DHT22;23928;47.562;7.508;2023-05-16T09:06:40;10.80;99.90
38118;DHT22;23928;47.562;7.508;2023-05-16T09:09:06;10.70;99.90
38118;DHT22;23928;47.562;7.508;2023-05-16T09:11:33;10.80;99.90
38118;DHT22;23928;47.562;7.508;2023-05-16T09:14:00;10.70;99.90
38118;DHT22;23928;47.562;7.508;2023-05-16T09:16:25;10.90;99.90
38118;DHT22;23928;47.562;7.508;2023-05-16T09:18:56;10.70;99.90
38118;DHT22;23928;47.562;7.508;2023-05-16T09:21:27;10.80;99.90
38118;DHT22;23928;47.562;7.508;2023-05-16T09:23:53;10.70;99.90
38118;DHT22;23928;47.562;7.508;2023-05-16T09:26:19;10.80;99.90
38118;DHT22;23928;47.562;7.508;2023-05-16T09:28:46;10.80;99.90
38118;DHT22;23928;47.562;7.508;2023-05-16T09:31:22;10.80;99.90
38118;DHT22;23928;47.562;7.508;2023-05-16T09:33:56;10.80;99.90
38118;DHT22;23928;47.562;7.508;2023-05-16T09:36:22;10.80;99.90
38118;DHT22;23928;47.562;7.508;2023-05-16T09:38:50;10.90;99.90
38118;DHT22;23928;47.562;7.508;2023-05-16T09:41:16;10.90;99.90
38118;DHT22;23928;47.562;7.508;2023-05-16T09:43:42;10.90;99.90
38118;DHT22;23928;47.562;7.508;2023-05-16T09:46:11;10.90;99.90
38118;DHT22;23928;47.562;7.508;2023-05-16T09:48:40;10.80;99.90
38118;DHT22;23928;47.562;7.508;2023-05-16T09:51:07;10.70;99.90
38118;DHT22;23928;47.562;7.508;2023-05-16T09:53:32;10.80;99.90
38118;DHT22;23928;47.562;7.508;2023-05-16T09:56:05;10.70;99.90
38118;DHT22;23928;47.562;7.508;2023-05-16T09:58:34;10.70;99.90
38118;DHT22;23928;47.562;7.508;2023-05-16T10:01:00;10.70;99.90
38118;DHT22;23928;47.562;7.508;2023-05-16T10:03:26;10.70;99.90
38118;DHT22;23928;47.562;7.508;2023-05-16T10:05:53;10.70;99.90
38118;DHT22;23928;47.562;7.508;2023-05-16T10:08:24;10.70;99.90
38118;DHT22;23928;47.562;7.508;2023-05-16T10:10:52;10.80;99.90
38118;DHT22;23928;47.562;7.508;2023-05-16T10:13:22;10.80;99.90
38118;DHT22;23928;47.562;7.508;2023-05-16T10:15:49;10.70;99.90
38118;DHT22;23928;47.562;7.508;2023-05-16T10:18:17;10.60;99.90
38118;DHT22;23928;47.562;7.508;2023-05-16T10:20:45;10.70;99.90
38118;DHT22;23928;47.562;7.508;2023-05-16T10:23:16;10.70;99.90
38118;DHT22;23928;47.562;7.508;2023-05-16T10:25:43;10.70;99.90
38118;DHT22;23928;47.562;7.508;2023-05-16T10:28:09;10.80;99.90
38118;DHT22;23928;47.562;7.508;2023-05-16T10:30:35;10.90;99.90
38118;DHT22;23928;47.562;7.508;2023-05-16T10:33:02;10.60;99.90
38118;DHT22;23928;47.562;7.508;2023-05-16T10:35:30;10.80;99.90
38118;DHT22;23928;47.562;7.508;2023-05-16T10:37:57;10.90;99.90
38118;DHT22;23928;47.562;7.508;2023-05-16T10:40:23;10.90;99.90
38118;DHT22;23928;47.562;7.508;2023-05-16T10:43:00;10.90;99.90
38118;DHT22;23928;47.562;7.508;2023-05-16T10:45:26;10.80;99.90
38118;DHT22;23928;47.562;7.508;2023-05-16T10:47:59;10.90;99.90
38118;DHT22;23928;47.562;7.508;2023-05-16T10:50:39;10.80;99.90
38118;DHT22;23928;47.562;7.508;2023-05-16T10:53:17;10.90;99.90
38118;DHT22;23928;47.562;7.508;2023-05-16T10:56:07;10.80;99.90
38118;DHT22;23928;47.562;7.508;2023-05-16T11:01:24;10.80;99.90
38118;DHT22;23928;47.562;7.508;2023-05-16T11:06:33;10.90;99.90
38118;DHT22;23928;47.562;7.508;2023-05-16T11:14:06;10.90;99.90
38118;DHT22;23928;47.562;7.508;2023-05-16T11:16:33;11.00;99.90
38118;DHT22;23928;47.562;7.508;2023-05-16T11:19:06;11.00;99.90
38118;DHT22;23928;47.562;7.508;2023-05-16T11:24:37;10.80;99.90
38118;DHT22;23928;47.562;7.508;2023-05-16T11:27:04;10.90;99.90
38118;DHT22;23928;47.562;7.508;2023-05-16T11:29:36;10.90;99.90
38118;DHT22;23928;47.562;7.508;2023-05-16T11:32:04;10.80;99.90
38118;DHT22;23928;47.562;7.508;2023-05-16T11:34:31;10.90;99.90
38118;DHT22;23928;47.562;7.508;2023-05-16T11:37:00;11.00;99.90
38118;DHT22;23928;47.562;7.508;2023-05-16T11:39:28;10.80;99.90
38118;DHT22;23928;47.562;7.508;2023-05-16T11:41:55;10.90;99.90
38118;DHT22;23928;47.562;7.508;2023-05-16T11:44:20;11.10;99.90
38118;DHT22;23928;47.562;7.508;2023-05-16T11:46:46;11.00;99.90
38118;DHT22;23928;47.562;7.508;2023-05-16T11:49:12;11.10;99.90
38118;DHT22;23928;47.562;7.508;2023-05-16T11:51:38;11.10;99.90
38118;DHT22;23928;47.562;7.508;2023-05-16T11:54:05;11.10;99.90
38118;DHT22;23928;47.562;7.508;2023-05-16T11:56:33;11.10;99.90
38118;DHT22;23928;47.562;7.508;2023-05-16T11:59:00;11.10;99.90
38118;DHT22;23928;47.562;7.508;2023-05-16T12:01:34;11.00;99.90
38118;DHT22;23928;47.562;7.508;2023-05-16T12:04:00;10.90;99.90
38118;DHT22;23928;47.562;7.508;2023-05-16T12:06:26;11.00;99.90
38118;DHT22;23928;47.562;7.508;2023-05-16T12:08:53;10.90;99.90
38118;DHT22;23928;47.562;7.508;2023-05-16T12:11:19;10.90;99.90
38118;DHT22;23928;47.562;7.508;2023-05-16T12:13:47;10.90;99.90
38118;DHT22;23928;47.562;7.508;2023-05-16T12:16:13;11.00;99.90
38118;DHT22;23928;47.562;7.508;2023-05-16T12:18:39;10.90;99.90
38118;DHT22;23928;47.562;7.508;2023-05-16T12:21:05;10.90;99.90
38118;DHT22;23928;47.562;7.508;2023-05-16T12:23:32;11.00;99.90
38118;DHT22;23928;47.562;7.508;2023-05-16T12:25:58;10.90;99.90
38118;DHT22;23928;47.562;7.508;2023-05-16T12:28:30;10.70;99.90
38118;DHT22;23928;47.562;7.508;2023-05-16T12:31:01;10.70;99.90
38118;DHT22;23928;47.562;7.508;2023-05-16T12:33:27;10.80;99.90
38118;DHT22;23928;47.562;7.508;2023-05-16T12:35:53;10.80;99.90
38118;DHT22;23928;47.562;7.508;2023-05-16T12:38:19;10.90;99.90
38118;DHT22;23928;47.562;7.508;2023-05-16T12:40:46;10.90;99.90
38118;DHT22;23928;47.562;7.508;2023-05-16T12:43:13;11.00;99.90
38118;DHT22;23928;47.562;7.508;2023-05-16T12:45:39;10.80;99.90
38118;DHT22;23928;47.562;7.508;2023-05-16T12:48:11;10.90;99.90
38118;DHT22;23928;47.562;7.508;2023-05-16T12:50:38;10.90;99.90
38118;DHT22;23928;47.562;7.508;2023-05-16T12:53:04;11.00;99.90
38118;DHT22;23928;47.562;7.508;2023-05-16T12:55:34;10.90;99.90
38118;DHT22;23928;47.562;7.508;2023-05-16T12:58:00;10.90;99.90
38118;DHT22;23928;47.562;7.508;2023-05-16T13:00:26;11.00;99.90
38118;DHT22;23928;47.562;7.508;2023-05-16T13:02:51;10.90;99.90
38118;DHT22;23928;47.562;7.508;2023-05-16T13:05:17;10.90;99.90
38118;DHT22;23928;47.562;7.508;2023-05-16T13:07:43;10.90;99.90
38118;DHT22;23928;47.562;7.508;2023-05-16T13:10:10;10.80;99.90
38118;DHT22;23928;47.562;7.508;2023-05-16T13:12:37;10.90;99.90
38118;DHT22;23928;47.562;7.508;2023-05-16T13:15:04;10.90;99.90
38118;DHT22;23928;47.562;7.508;2023-05-16T13:17:35;10.80;99.90
38118;DHT22;23928;47.562;7.508;2023-05-16T13:20:01;10.80;99.90
38118;DHT22;23928;47.562;7.508;2023-05-16T13:22:27;10.80;99.90
38118;DHT22;23928;47.562;7.508;2023-05-16T13:24:53;10.80;99.90
38118;DHT22;23928;47.562;7.508;2023-05-16T13:27:19;10.80;99.90
38118;DHT22;23928;47.562;7.508;2023-05-16T13:29:44;10.70;99.90
38118;DHT22;23928;47.562;7.508;2023-05-16T13:32:10;10.80;99.90
38118;DHT22;23928;47.562;7.508;2023-05-16T13:34:36;10.70;99.90
38118;DHT22;23928;47.562;7.508;2023-05-16T13:37:01;10.80;99.90
38118;DHT22;23928;47.562;7.508;2023-05-16T13:39:28;10.80;99.90
38118;DHT22;23928;47.562;7.508;2023-05-16T13:41:53;10.70;99.90
38118;DHT22;23928;47.562;7.508;2023-05-16T13:44:19;10.80;99.90
38118;DHT22;23928;47.562;7.508;2023-05-16T13:46:47;10.80;99.90
38118;DHT22;23928;47.562;7.508;2023-05-16T13:49:13;10.90;99.90
38118;DHT22;23928;47.562;7.508;2023-05-16T13:51:38;10.70;99.90
38118;DHT22;23928;47.562;7.508;2023-05-16T13:54:04;10.80;99.90
38118;DHT22;23928;47.562;7.508;2023-05-16T13:56:29;10.80;99.90
38118;DHT22;23928;47.562;7.508;2023-05-16T13:58:55;10.70;99.90
38118;DHT22;23928;47.562;7.508;2023-05-16T14:01:21;10.70;99.90
38118;DHT22;23928;47.562;7.508;2023-05-16T14:03:47;10.70;99.90
38118;DHT22;23928;47.562;7.508;2023-05-16T14:06:12;10.70;99.90
38118;DHT22;23928;47.562;7.508;2023-05-16T14:08:38;10.70;99.90
38118;DHT22;23928;47.562;7.508;2023-05-16T14:11:04;10.60;99.90
38118;DHT22;23928;47.562;7.508;2023-05-16T14:13:30;10.60;99.90
38118;DHT22;23928;47.562;7.508;2023-05-16T14:15:55;10.60;99.90
38118;DHT22;23928;47.562;7.508;2023-05-16T14:18:22;10.50;99.90
38118;DHT22;23928;47.562;7.508;2023-05-16T14:20:47;10.50;99.90
38118;DHT22;23928;47.562;7.508;2023-05-16T14:23:15;10.60;99.90
38118;DHT22;23928;47.562;7.508;2023-05-16T14:25:40;10.50;99.90
38118;DHT22;23928;47.562;7.508;2023-05-16T14:28:06;10.50;99.90
38118;DHT22;23928;47.562;7.508;2023-05-16T14:30:32;10.50;99.90
38118;DHT22;23928;47.562;7.508;2023-05-16T14:32:58;10.50;99.90
38118;DHT22;23928;47.562;7.508;2023-05-16T14:35:24;10.40;99.90
38118;DHT22;23928;47.562;7.508;2023-05-16T14:37:50;10.30;99.90
38118;DHT22;23928;47.562;7.508;2023-05-16T14:40:16;10.40;99.90
38118;DHT22;23928;47.562;7.508;2023-05-16T14:42:41;10.50;99.90
38118;DHT22;23928;47.562;7.508;2023-05-16T14:45:07;10.50;99.90
38118;DHT22;23928;47.562;7.508;2023-05-16T14:47:33;10.40;99.90
38118;DHT22;23928;47.562;7.508;2023-05-16T14:49:58;10.40;99.90
38118;DHT22;23928;47.562;7.508;2023-05-16T14:52:25;10.40;99.90
38118;DHT22;23928;47.562;7.508;2023-05-16T14:54:50;10.40;99.90
38118;DHT22;23928;47.562;7.508;2023-05-16T14:57:16;10.40;99.90
38118;DHT22;23928;47.562;7.508;2023-05-16T14:59:42;10.40;99.90
38118;DHT22;23928;47.562;7.508;2023-05-16T15:02:07;10.40;99.90
38118;DHT22;23928;47.562;7.508;2023-05-16T15:04:33;10.40;99.90
38118;DHT22;23928;47.562;7.508;2023-05-16T15:06:58;10.30;99.90
38118;DHT22;23928;47.562;7.508;2023-05-16T15:09:24;10.30;99.90
38118;DHT22;23928;47.562;7.508;2023-05-16T15:11:49;10.20;99.90
38118;DHT22;23928;47.562;7.508;2023-05-16T15:14:15;10.30;99.90
38118;DHT22;23928;47.562;7.508;2023-05-16T15:16:41;10.20;99.90
38118;DHT22;23928;47.562;7.508;2023-05-16T15:19:07;10.20;99.90
38118;DHT22;23928;47.562;7.508;2023-05-16T15:21:33;10.20;99.90
38118;DHT22;23928;47.562;7.508;2023-05-16T15:23:58;10.10;99.90
38118;DHT22;23928;47.562;7.508;2023-05-16T15:26:24;10.20;99.90
38118;DHT22;23928;47.562;7.508;2023-05-16T15:28:49;10.10;99.90
38118;DHT22;23928;47.562;7.508;2023-05-16T15:31:15;10.10;99.90
38118;DHT22;23928;47.562;7.508;2023-05-16T15:33:41;10.10;99.90
38118;DHT22;23928;47.562;7.508;2023-05-16T15:36:06;10.20;99.90
38118;DHT22;23928;47.562;7.508;2023-05-16T15:38:32;10.20;99.90
38118;DHT22;23928;47.562;7.508;2023-05-16T15:40:58;10.10;99.90
38118;DHT22;23928;47.562;7.508;2023-05-16T15:43:23;10.20;99.90
38118;DHT22;23928;47.562;7.508;2023-05-16T15:45:49;10.20;99.90
38118;DHT22;23928;47.562;7.508;2023-05-16T15:48:14;10.10;99.90
38118;DHT22;23928;47.562;7.508;2023-05-16T15:50:40;10.20;99.90